createdAt,value
2022-08-26T00:00:31.623Z,0
2022-08-26T00:01:31.655Z,0
2022-08-26T00:02:32.810Z,0
2022-08-26T00:03:31.649Z,0
2022-08-26T00:04:31.651Z,0
2022-08-26T00:05:31.639Z,0
2022-08-26T00:06:31.634Z,0
2022-08-26T00:07:31.633Z,0
2022-08-26T00:08:31.628Z,0
2022-08-26T00:09:31.654Z,0
2022-08-26T00:10:31.814Z,0
2022-08-26T00:11:31.651Z,0
2022-08-26T00:12:37.278Z,0
2022-08-26T00:13:31.661Z,0
2022-08-26T00:14:31.722Z,0
2022-08-26T00:15:31.661Z,0
2022-08-26T00:16:31.715Z,0
2022-08-26T00:17:31.657Z,0
2022-08-26T00:18:31.660Z,0
2022-08-26T00:19:31.656Z,0
2022-08-26T00:20:31.686Z,0
2022-08-26T00:21:31.661Z,0
2022-08-26T00:22:31.657Z,0
2022-08-26T00:23:31.655Z,0
2022-08-26T00:24:31.659Z,0
2022-08-26T00:25:31.645Z,0
2022-08-26T00:26:31.814Z,0
2022-08-26T00:27:31.697Z,0
2022-08-26T00:28:31.959Z,0
2022-08-26T00:29:31.919Z,0
2022-08-26T00:30:31.711Z,0
2022-08-26T00:31:31.683Z,0
2022-08-26T00:32:31.668Z,0
2022-08-26T00:33:31.695Z,0
2022-08-26T00:34:31.664Z,0
2022-08-26T00:35:34.190Z,0
2022-08-26T00:36:31.654Z,0
2022-08-26T00:37:31.644Z,0
2022-08-26T00:38:31.729Z,0
2022-08-26T00:39:31.650Z,0
2022-08-26T00:40:31.845Z,0
2022-08-26T00:41:31.659Z,0
2022-08-26T00:42:31.661Z,0
2022-08-26T00:43:31.653Z,0
2022-08-26T00:44:31.611Z,0
2022-08-26T00:45:31.751Z,0
2022-08-26T00:46:31.644Z,0
2022-08-26T00:47:31.657Z,0
2022-08-26T00:48:31.924Z,0
2022-08-26T00:49:31.641Z,0
2022-08-26T00:50:31.615Z,0
2022-08-26T00:51:31.662Z,0
2022-08-26T00:52:31.707Z,0
2022-08-26T00:53:31.628Z,0
2022-08-26T00:54:31.666Z,0
2022-08-26T00:55:37.827Z,0
2022-08-26T00:56:32.001Z,0
2022-08-26T00:57:31.673Z,0
2022-08-26T00:58:31.664Z,0
2022-08-26T00:59:32.803Z,0
2022-08-26T01:00:31.648Z,0
2022-08-26T01:01:32.767Z,0
2022-08-26T01:02:32.233Z,0
2022-08-26T01:03:31.651Z,0
2022-08-26T01:04:31.643Z,0
2022-08-26T01:05:31.649Z,0
2022-08-26T01:06:31.710Z,0
2022-08-26T01:07:31.645Z,0
2022-08-26T01:08:31.684Z,0
2022-08-26T01:09:31.640Z,0
2022-08-26T01:10:31.673Z,0
2022-08-26T01:11:31.635Z,0
2022-08-26T01:12:31.643Z,0
2022-08-26T01:13:31.672Z,0
2022-08-26T01:14:31.644Z,0
2022-08-26T01:15:32.901Z,0
2022-08-26T01:16:31.791Z,0
2022-08-26T01:17:33.697Z,0
2022-08-26T01:18:31.672Z,0
2022-08-26T01:19:31.639Z,0
2022-08-26T01:20:31.695Z,0
2022-08-26T01:21:31.734Z,0
2022-08-26T01:22:31.669Z,0
2022-08-26T01:23:31.656Z,0
2022-08-26T01:24:31.697Z,0
2022-08-26T01:25:31.657Z,0
2022-08-26T01:26:31.667Z,0
2022-08-26T01:27:32.451Z,0
2022-08-26T01:28:31.662Z,0
2022-08-26T01:29:31.678Z,0
2022-08-26T01:30:31.658Z,0
2022-08-26T01:31:31.736Z,0
2022-08-26T01:32:31.679Z,0
2022-08-26T01:33:31.672Z,0
2022-08-26T01:34:31.694Z,0
2022-08-26T01:35:31.639Z,0
2022-08-26T01:36:31.712Z,0
2022-08-26T01:37:31.656Z,0
2022-08-26T01:38:31.697Z,0
2022-08-26T01:39:31.643Z,0
2022-08-26T01:40:31.893Z,0
2022-08-26T01:41:31.732Z,0
2022-08-26T01:42:31.839Z,0
2022-08-26T01:43:31.820Z,0
2022-08-26T01:44:31.741Z,0
2022-08-26T01:45:31.880Z,0
2022-08-26T01:46:31.816Z,0
2022-08-26T01:47:31.774Z,0
2022-08-26T01:48:31.675Z,0
2022-08-26T01:49:31.991Z,0
2022-08-26T01:50:31.633Z,0
2022-08-26T01:51:31.669Z,0
2022-08-26T01:52:31.658Z,0
2022-08-26T01:53:31.656Z,0
2022-08-26T01:54:31.669Z,0
2022-08-26T01:55:32.892Z,0
2022-08-26T01:56:33.312Z,0
2022-08-26T01:57:31.647Z,0
2022-08-26T01:58:31.659Z,0
2022-08-26T01:59:31.634Z,0
2022-08-26T02:00:31.685Z,0
2022-08-26T02:01:31.674Z,0
2022-08-26T02:02:31.644Z,0
2022-08-26T02:03:31.686Z,0
2022-08-26T02:04:31.689Z,0
2022-08-26T02:05:31.654Z,0
2022-08-26T02:06:31.633Z,0
2022-08-26T02:07:31.659Z,0
2022-08-26T02:08:31.613Z,0
2022-08-26T02:09:31.661Z,0
2022-08-26T02:10:31.663Z,0
2022-08-26T02:11:31.747Z,0
2022-08-26T02:12:31.630Z,0
2022-08-26T02:13:31.645Z,0
2022-08-26T02:14:31.657Z,0
2022-08-26T02:15:31.675Z,0
2022-08-26T02:16:31.698Z,0
2022-08-26T02:17:31.674Z,0
2022-08-26T02:18:31.664Z,0
2022-08-26T02:19:31.659Z,0
2022-08-26T02:20:31.611Z,0
2022-08-26T02:21:31.639Z,0
2022-08-26T02:22:31.633Z,0
2022-08-26T02:23:31.648Z,0
2022-08-26T02:24:31.625Z,0
2022-08-26T02:25:31.644Z,0
2022-08-26T02:26:31.619Z,0
2022-08-26T02:27:32.410Z,0
2022-08-26T02:28:31.674Z,0
2022-08-26T02:29:31.633Z,0
2022-08-26T02:30:31.637Z,0
2022-08-26T02:31:32.571Z,0
2022-08-26T02:32:31.622Z,0
2022-08-26T02:33:31.637Z,0
2022-08-26T02:34:31.645Z,0
2022-08-26T02:35:31.708Z,0
2022-08-26T02:36:31.634Z,0
2022-08-26T02:37:31.643Z,0
2022-08-26T02:38:31.638Z,0
2022-08-26T02:39:31.632Z,0
2022-08-26T02:40:31.744Z,0
2022-08-26T02:41:31.614Z,0
2022-08-26T02:42:31.638Z,0
2022-08-26T02:43:31.853Z,0
2022-08-26T02:44:31.646Z,0
2022-08-26T02:45:31.642Z,0
2022-08-26T02:46:31.680Z,0
2022-08-26T02:47:31.645Z,0
2022-08-26T02:48:31.633Z,0
2022-08-26T02:49:31.642Z,0
2022-08-26T02:50:31.632Z,0
2022-08-26T02:51:31.627Z,0
2022-08-26T02:52:31.621Z,0
2022-08-26T02:53:31.917Z,0
2022-08-26T02:54:31.639Z,0
2022-08-26T02:55:31.714Z,0
2022-08-26T02:56:31.639Z,0
2022-08-26T02:57:31.653Z,0
2022-08-26T02:58:31.650Z,0
2022-08-26T02:59:31.649Z,0
2022-08-26T03:00:31.667Z,0
2022-08-26T03:01:31.764Z,0
2022-08-26T03:02:31.637Z,0
2022-08-26T03:03:31.662Z,0
2022-08-26T03:04:33.315Z,0
2022-08-26T03:05:32.109Z,0
2022-08-26T03:06:31.638Z,0
2022-08-26T03:07:31.675Z,0
2022-08-26T03:08:31.610Z,0
2022-08-26T03:09:31.641Z,0
2022-08-26T03:10:31.809Z,0
2022-08-26T03:11:33.166Z,0
2022-08-26T03:12:31.733Z,0
2022-08-26T03:13:31.763Z,0
2022-08-26T03:14:31.737Z,0
2022-08-26T03:15:31.819Z,0
2022-08-26T03:16:32.522Z,0
2022-08-26T03:17:31.830Z,0
2022-08-26T03:18:31.771Z,0
2022-08-26T03:19:31.629Z,0
2022-08-26T03:20:31.776Z,0
2022-08-26T03:21:31.745Z,0
2022-08-26T03:22:31.792Z,0
2022-08-26T03:23:31.810Z,0
2022-08-26T03:24:31.616Z,0
2022-08-26T03:25:31.798Z,0
2022-08-26T03:26:31.680Z,0
2022-08-26T03:27:32.813Z,0
2022-08-26T03:28:31.804Z,0
2022-08-26T03:29:32.987Z,0
2022-08-26T03:30:31.636Z,0
2022-08-26T03:31:31.705Z,0
2022-08-26T03:32:31.626Z,0
2022-08-26T03:33:31.659Z,0
2022-08-26T03:34:31.633Z,0
2022-08-26T03:35:31.809Z,0
2022-08-26T03:36:31.631Z,0.36
2022-08-26T03:37:31.722Z,0.85
2022-08-26T03:38:31.708Z,0.36
2022-08-26T03:39:32.575Z,0.36
2022-08-26T03:40:31.785Z,0.85
2022-08-26T03:41:31.765Z,0.85
2022-08-26T03:42:31.653Z,0.85
2022-08-26T03:43:31.658Z,0.85
2022-08-26T03:44:31.622Z,0.85
2022-08-26T03:45:31.646Z,1.71
2022-08-26T03:46:32.180Z,1.22
2022-08-26T03:47:31.645Z,2.08
2022-08-26T03:48:31.663Z,1.22
2022-08-26T03:49:31.668Z,2.94
2022-08-26T03:50:34.238Z,2.57
2022-08-26T03:51:31.650Z,2.94
2022-08-26T03:52:31.623Z,2.57
2022-08-26T03:53:31.690Z,2.57
2022-08-26T03:54:31.635Z,3.43
2022-08-26T03:55:31.716Z,3.79
2022-08-26T03:56:31.629Z,3.79
2022-08-26T03:57:31.655Z,4.28
2022-08-26T03:58:31.781Z,3.79
2022-08-26T03:59:31.732Z,4.28
2022-08-26T04:00:31.626Z,4.77
2022-08-26T04:01:31.824Z,3.79
2022-08-26T04:02:31.741Z,4.28
2022-08-26T04:03:31.644Z,4.28
2022-08-26T04:04:31.641Z,4.77
2022-08-26T04:05:31.632Z,5.14
2022-08-26T04:06:31.627Z,5.14
2022-08-26T04:07:32.038Z,5.63
2022-08-26T04:08:31.718Z,4.77
2022-08-26T04:09:31.690Z,4.77
2022-08-26T04:10:31.650Z,5.63
2022-08-26T04:11:34.169Z,5.99
2022-08-26T04:12:31.627Z,5.63
2022-08-26T04:13:31.640Z,5.99
2022-08-26T04:14:31.771Z,5.99
2022-08-26T04:15:31.678Z,6.85
2022-08-26T04:16:31.645Z,6.48
2022-08-26T04:17:31.626Z,6.48
2022-08-26T04:18:37.092Z,7.34
2022-08-26T04:19:31.814Z,7.34
2022-08-26T04:20:31.615Z,9.05
2022-08-26T04:21:31.628Z,10.39
2022-08-26T04:22:31.764Z,10.77
2022-08-26T04:23:31.657Z,11.25
2022-08-26T04:24:31.613Z,11.25
2022-08-26T04:25:31.650Z,11.62
2022-08-26T04:26:31.643Z,12.97
2022-08-26T04:27:31.632Z,16.02
2022-08-26T04:28:31.626Z,18.11
2022-08-26T04:29:31.698Z,17.73
2022-08-26T04:30:31.667Z,16.39
2022-08-26T04:31:31.701Z,14.68
2022-08-26T04:32:31.635Z,13.33
2022-08-26T04:33:33.114Z,13.33
2022-08-26T04:34:31.640Z,10.77
2022-08-26T04:35:31.959Z,11.62
2022-08-26T04:36:31.605Z,11.62
2022-08-26T04:37:31.607Z,11.25
2022-08-26T04:38:31.664Z,11.62
2022-08-26T04:39:31.637Z,11.62
2022-08-26T04:40:31.689Z,11.62
2022-08-26T04:41:31.753Z,10.77
2022-08-26T04:42:31.816Z,10.77
2022-08-26T04:43:31.640Z,12.11
2022-08-26T04:44:31.633Z,12.11
2022-08-26T04:45:31.643Z,12.11
2022-08-26T04:46:31.692Z,12.97
2022-08-26T04:47:32.509Z,12.48
2022-08-26T04:48:31.785Z,14.68
2022-08-26T04:49:35.037Z,15.17
2022-08-26T04:50:31.645Z,15.17
2022-08-26T04:51:32.298Z,15.53
2022-08-26T04:52:31.616Z,14.68
2022-08-26T04:53:31.606Z,16.39
2022-08-26T04:54:31.638Z,16.88
2022-08-26T04:55:38.655Z,13.82
2022-08-26T04:56:31.628Z,13.82
2022-08-26T04:57:31.630Z,14.68
2022-08-26T04:58:31.656Z,17.25
2022-08-26T04:59:34.093Z,16.39
2022-08-26T05:00:31.752Z,16.39
2022-08-26T05:01:31.722Z,16.88
2022-08-26T05:02:31.645Z,19.94
2022-08-26T05:03:31.744Z,26.42
2022-08-26T05:04:31.614Z,27.65
2022-08-26T05:05:31.629Z,33.39
2022-08-26T05:06:31.652Z,36.33
2022-08-26T05:07:31.902Z,44.65
2022-08-26T05:08:31.674Z,51.5
2022-08-26T05:09:31.641Z,62.39
2022-08-26T05:10:31.651Z,58.97
2022-08-26T05:11:31.649Z,61.53
2022-08-26T05:12:31.619Z,67.16
2022-08-26T05:13:31.754Z,61.53
2022-08-26T05:14:31.657Z,52.48
2022-08-26T05:15:31.645Z,50.65
2022-08-26T05:16:31.673Z,56.27
2022-08-26T05:17:31.662Z,35.48
2022-08-26T05:18:31.642Z,23.36
2022-08-26T05:19:31.643Z,24.22
2022-08-26T05:20:31.633Z,30.34
2022-08-26T05:21:31.614Z,27.65
2022-08-26T05:22:31.623Z,28.63
2022-08-26T05:23:31.641Z,33.39
2022-08-26T05:24:31.636Z,29.85
2022-08-26T05:25:31.626Z,29.48
2022-08-26T05:26:31.780Z,31.56
2022-08-26T05:27:31.846Z,42.45
2022-08-26T05:28:31.651Z,65.94
2022-08-26T05:29:31.604Z,57.25
2022-08-26T05:30:31.658Z,50.28
2022-08-26T05:31:31.874Z,38.53
2022-08-26T05:32:31.622Z,34.62
2022-08-26T05:33:31.630Z,30.34
2022-08-26T05:34:31.607Z,34.62
2022-08-26T05:35:31.619Z,22.02
2022-08-26T05:36:31.632Z,22.51
2022-08-26T05:37:31.612Z,22.51
2022-08-26T05:38:31.620Z,21.16
2022-08-26T05:39:31.626Z,22.02
2022-08-26T05:40:31.666Z,64.1
2022-08-26T05:41:34.247Z,37.68
2022-08-26T05:42:31.641Z,93.22
2022-08-26T05:43:31.616Z,114.87
2022-08-26T05:44:53.517Z,154.39
2022-08-26T05:45:31.677Z,160.02
2022-08-26T05:46:31.728Z,159.53
2022-08-26T05:47:31.647Z,161.73
2022-08-26T05:48:31.642Z,49.79
2022-08-26T05:49:31.612Z,85.39
2022-08-26T05:50:31.642Z,160.51
2022-08-26T05:51:31.625Z,47.71
2022-08-26T05:52:31.615Z,159.53
2022-08-26T05:53:31.611Z,77.56
2022-08-26T05:54:31.652Z,167.85
2022-08-26T05:55:32.257Z,180.81
2022-08-26T05:56:31.675Z,77.19
2022-08-26T05:57:31.612Z,61.17
2022-08-26T05:58:31.662Z,59.82
2022-08-26T05:59:31.606Z,160.02
2022-08-26T06:00:31.690Z,155.24
2022-08-26T06:01:31.678Z,90.65
2022-08-26T06:02:31.702Z,68.02
2022-08-26T06:03:31.790Z,88.45
2022-08-26T06:04:31.626Z,47.71
2022-08-26T06:05:36.552Z,61.17
2022-08-26T06:06:31.632Z,62.88
2022-08-26T06:07:31.625Z,64.59
2022-08-26T06:08:31.622Z,60.68
2022-08-26T06:09:31.768Z,56.27
2022-08-26T06:10:32.950Z,64.96
2022-08-26T06:11:31.622Z,85.02
2022-08-26T06:12:31.622Z,97.5
2022-08-26T06:13:31.982Z,112.3
2022-08-26T06:14:31.718Z,127.1
2022-08-26T06:15:31.659Z,98.36
2022-08-26T06:16:31.623Z,50.65
2022-08-26T06:17:31.611Z,38.53
2022-08-26T06:18:31.624Z,35.48
2022-08-26T06:19:32.967Z,45.87
2022-08-26T06:20:40.460Z,47.71
2022-08-26T06:21:44.418Z,53.7
2022-08-26T06:22:48.463Z,60.68
2022-08-26T06:23:52.467Z,68.51
2022-08-26T06:24:56.634Z,68.02
2022-08-26T06:26:00.439Z,70.22
2022-08-26T06:27:04.474Z,70.71
2022-08-26T06:28:08.457Z,64.1
2022-08-26T06:29:12.435Z,84.53
2022-08-26T06:30:16.430Z,68.51
2022-08-26T06:31:20.460Z,46.36
2022-08-26T06:32:24.427Z,34.62
2022-08-26T06:33:28.443Z,43.31
2022-08-26T06:34:31.592Z,41.59
2022-08-26T06:35:31.636Z,56.76
2022-08-26T06:36:31.624Z,67.65
2022-08-26T06:37:31.636Z,56.27
2022-08-26T06:38:31.587Z,56.27
2022-08-26T06:39:31.858Z,71.93
2022-08-26T06:40:31.654Z,79.76
2022-08-26T06:41:31.646Z,78.41
2022-08-26T06:42:31.599Z,73.28
2022-08-26T06:43:31.619Z,53.7
2022-08-26T06:44:32.276Z,33.39
2022-08-26T06:45:31.922Z,32.05
2022-08-26T06:46:31.661Z,36.33
2022-08-26T06:47:31.619Z,53.34
2022-08-26T06:48:31.621Z,100.56
2022-08-26T06:49:31.617Z,94.93
2022-08-26T06:50:31.603Z,97.13
2022-08-26T06:51:31.752Z,55.9
2022-08-26T06:52:31.714Z,49.42
2022-08-26T06:53:31.639Z,40.73
2022-08-26T06:54:31.984Z,45.87
2022-08-26T06:55:31.623Z,68.87
2022-08-26T06:56:31.635Z,73.65
2022-08-26T06:57:31.713Z,85.39
2022-08-26T06:58:31.616Z,85.02
2022-08-26T06:59:41.879Z,78.05
2022-08-26T07:00:31.620Z,144.36
2022-08-26T07:01:31.664Z,139.58
2022-08-26T07:02:31.676Z,101.9
2022-08-26T07:03:31.632Z,87.1
2022-08-26T07:04:32.640Z,61.17
2022-08-26T07:05:44.405Z,62.39
2022-08-26T07:06:48.580Z,74.99
2022-08-26T07:07:52.539Z,78.9
2022-08-26T07:08:56.392Z,92.73
2022-08-26T07:10:00.514Z,93.58
2022-08-26T07:11:04.409Z,97.99
2022-08-26T07:12:08.392Z,92.36
2022-08-26T07:13:12.401Z,103.61
2022-08-26T07:14:16.368Z,108.39
2022-08-26T07:15:20.343Z,97.5
2022-08-26T07:16:24.444Z,83.19
2022-08-26T07:17:28.515Z,81.97
2022-08-26T07:18:31.602Z,91.51
2022-08-26T07:19:31.941Z,92.36
2022-08-26T07:20:31.598Z,107.53
2022-08-26T07:21:31.609Z,128.33
2022-08-26T07:22:31.595Z,137.87
2022-08-26T07:23:31.644Z,141.42
2022-08-26T07:24:31.628Z,125.76
2022-08-26T07:25:31.692Z,91.02
2022-08-26T07:26:31.592Z,87.59
2022-08-26T07:27:31.605Z,79.27
2022-08-26T07:28:31.596Z,87.59
2022-08-26T07:29:31.611Z,321.01
2022-08-26T07:30:31.572Z,318.32
2022-08-26T07:31:33.585Z,117.07
2022-08-26T07:32:31.616Z,160.87
2022-08-26T07:33:31.624Z,223.75
2022-08-26T07:34:31.608Z,78.41
2022-08-26T07:35:31.617Z,74.5
2022-08-26T07:36:31.622Z,63.24
2022-08-26T07:37:35.647Z,61.53
2022-08-26T07:38:31.619Z,61.53
2022-08-26T07:39:31.881Z,59.33
2022-08-26T07:40:31.744Z,66.8
2022-08-26T07:41:31.679Z,82.33
2022-08-26T07:42:31.570Z,206.01
2022-08-26T07:43:31.629Z,466.71
2022-08-26T07:44:31.678Z,458.52
2022-08-26T07:45:31.613Z,458.88
2022-08-26T07:46:31.621Z,339.23
2022-08-26T07:47:31.822Z,470.13
2022-08-26T07:48:31.638Z,474.91
2022-08-26T07:49:31.690Z,142.64
2022-08-26T07:50:49.294Z,81.97
2022-08-26T07:51:31.658Z,94.56
2022-08-26T07:52:31.632Z,129.19
2022-08-26T07:53:31.658Z,161.36
2022-08-26T07:54:31.765Z,128.82
2022-08-26T07:55:31.831Z,501.45
2022-08-26T07:56:31.599Z,134.81
2022-08-26T07:57:31.599Z,114.51
2022-08-26T07:58:31.607Z,122.34
2022-08-26T07:59:31.651Z,250.66
2022-08-26T08:00:31.656Z,445.06
2022-08-26T08:01:31.612Z,355.63
2022-08-26T08:02:31.620Z,181.67
2022-08-26T08:03:31.744Z,571.31
2022-08-26T08:04:31.618Z,149.61
2022-08-26T08:05:33.377Z,537.91
2022-08-26T08:06:31.616Z,281
2022-08-26T08:07:38.283Z,114.51
2022-08-26T08:08:31.644Z,103.13
2022-08-26T08:09:31.579Z,91.87
2022-08-26T08:10:31.613Z,85.88
2022-08-26T08:11:31.618Z,88.45
2022-08-26T08:12:31.619Z,86.24
2022-08-26T08:13:31.604Z,89.79
2022-08-26T08:14:31.604Z,99.7
2022-08-26T08:15:31.630Z,85.39
2022-08-26T08:16:32.270Z,81.97
2022-08-26T08:17:31.592Z,84.53
2022-08-26T08:18:31.602Z,87.59
2022-08-26T08:19:36.661Z,84.04
2022-08-26T08:20:31.616Z,85.39
2022-08-26T08:21:31.576Z,95.79
2022-08-26T08:22:31.613Z,102.27
2022-08-26T08:23:31.616Z,105.82
2022-08-26T08:24:31.583Z,110.1
2022-08-26T08:25:31.926Z,120.5
2022-08-26T08:26:31.639Z,143.5
2022-08-26T08:27:31.603Z,632.48
2022-08-26T08:28:31.790Z,615.96
2022-08-26T08:29:31.589Z,654.99
2022-08-26T08:30:31.705Z,603.36
2022-08-26T08:31:56.079Z,205.52
2022-08-26T08:32:31.682Z,477.6
2022-08-26T08:33:31.624Z,198.67
2022-08-26T08:34:31.667Z,578.16
2022-08-26T08:35:32.749Z,622.08
2022-08-26T08:36:35.982Z,612.04
2022-08-26T08:37:31.612Z,128.82
2022-08-26T08:38:31.606Z,123.19
2022-08-26T08:39:31.595Z,606.79
2022-08-26T08:40:31.678Z,659.76
2022-08-26T08:41:31.588Z,491.06
2022-08-26T08:42:31.672Z,601.65
2022-08-26T08:43:31.632Z,560.06
2022-08-26T08:44:31.630Z,659.39
2022-08-26T08:45:35.879Z,687.16
2022-08-26T08:46:31.662Z,635.9
2022-08-26T08:47:32.619Z,693.16
2022-08-26T08:48:31.610Z,695.36
2022-08-26T08:49:31.644Z,678.48
2022-08-26T08:50:31.597Z,674.93
2022-08-26T08:51:31.634Z,161.36
2022-08-26T08:52:31.607Z,665.02
2022-08-26T08:53:31.721Z,532.65
2022-08-26T08:54:31.605Z,630.77
2022-08-26T08:55:31.777Z,643.73
2022-08-26T08:56:31.630Z,77.56
2022-08-26T08:57:31.642Z,92.73
2022-08-26T08:58:31.643Z,107.53
2022-08-26T08:59:31.608Z,459.74
2022-08-26T09:00:31.608Z,361.25
2022-08-26T09:01:31.681Z,190.36
2022-08-26T09:02:31.621Z,591.25
2022-08-26T09:03:31.678Z,269.38
2022-08-26T09:04:31.593Z,101.9
2022-08-26T09:05:31.605Z,153.04
2022-08-26T09:06:31.585Z,121.85
2022-08-26T09:07:34.539Z,207.36
2022-08-26T09:08:31.607Z,320.15
2022-08-26T09:09:31.611Z,560.91
2022-08-26T09:10:31.604Z,281.49
2022-08-26T09:11:31.619Z,176.04
2022-08-26T09:12:31.603Z,625.99
2022-08-26T09:13:31.974Z,180.81
2022-08-26T09:14:31.620Z,116.22
2022-08-26T09:15:31.608Z,123.19
2022-08-26T09:16:31.646Z,106.68
2022-08-26T09:17:31.611Z,123.56
2022-08-26T09:18:31.634Z,162.58
2022-08-26T09:19:31.617Z,97.5
2022-08-26T09:20:31.608Z,243.69
2022-08-26T09:21:31.591Z,124.9
2022-08-26T09:22:31.573Z,616.45
2022-08-26T09:23:31.646Z,119.27
2022-08-26T09:24:31.771Z,163.93
2022-08-26T09:25:32.836Z,84.53
2022-08-26T09:26:31.589Z,144.36
2022-08-26T09:27:31.672Z,204.66
2022-08-26T09:28:31.602Z,120.99
2022-08-26T09:29:31.623Z,108.39
2022-08-26T09:30:31.697Z,456.8
2022-08-26T09:31:31.663Z,103.13
2022-08-26T09:32:31.617Z,305.84
2022-08-26T09:33:31.597Z,253.24
2022-08-26T09:34:31.588Z,127.47
2022-08-26T09:35:31.686Z,184.73
2022-08-26T09:36:32.921Z,81.97
2022-08-26T09:37:31.664Z,422.91
2022-08-26T09:38:31.600Z,574.74
2022-08-26T09:39:31.602Z,212.13
2022-08-26T09:40:34.957Z,274.52
2022-08-26T09:41:31.628Z,365.17
2022-08-26T09:42:31.593Z,112.3
2022-08-26T09:43:31.620Z,193.41
2022-08-26T09:44:31.606Z,509.65
2022-08-26T09:45:32.859Z,103.13
2022-08-26T09:46:31.828Z,135.3
2022-08-26T09:47:31.945Z,201.24
2022-08-26T09:48:31.571Z,69.73
2022-08-26T09:49:35.592Z,403.34
2022-08-26T09:50:31.570Z,309.27
2022-08-26T09:51:31.601Z,106.68
2022-08-26T09:52:31.608Z,66.8
2022-08-26T09:53:31.620Z,287.61
2022-08-26T09:54:32.364Z,183.5
2022-08-26T09:55:33.472Z,84.04
2022-08-26T09:56:31.610Z,164.78
2022-08-26T09:57:31.594Z,68.87
2022-08-26T09:58:31.638Z,61.53
2022-08-26T09:59:31.563Z,140.44
2022-08-26T10:00:31.639Z,82.82
2022-08-26T10:01:31.697Z,52.48
2022-08-26T10:02:31.591Z,198.67
2022-08-26T10:03:31.735Z,257.64
2022-08-26T10:04:31.797Z,94.93
2022-08-26T10:05:33.540Z,60.68
2022-08-26T10:06:31.586Z,67.65
2022-08-26T10:07:31.581Z,67.16
2022-08-26T10:08:31.614Z,62.88
2022-08-26T10:09:31.616Z,68.51
2022-08-26T10:10:31.630Z,75.48
2022-08-26T10:11:31.602Z,194.76
2022-08-26T10:12:31.588Z,229.87
2022-08-26T10:13:31.586Z,95.42
2022-08-26T10:14:31.607Z,116.22
2022-08-26T10:15:33.339Z,53.34
2022-08-26T10:16:31.645Z,49.79
2022-08-26T10:17:31.607Z,67.16
2022-08-26T10:18:34.655Z,51.14
2022-08-26T10:19:41.861Z,386.09
2022-08-26T10:20:31.749Z,50.65
2022-08-26T10:21:31.578Z,48.07
2022-08-26T10:22:31.600Z,48.07
2022-08-26T10:23:31.626Z,81.48
2022-08-26T10:24:31.597Z,49.79
2022-08-26T10:25:31.649Z,48.07
2022-08-26T10:26:31.606Z,73.28
2022-08-26T10:27:31.584Z,81.48
2022-08-26T10:28:31.606Z,51.14
2022-08-26T10:29:31.593Z,48.07
2022-08-26T10:30:31.597Z,44.65
2022-08-26T10:31:38.089Z,62.88
2022-08-26T10:32:31.643Z,49.42
2022-08-26T10:33:31.587Z,43.8
2022-08-26T10:34:31.596Z,55.05
2022-08-26T10:35:31.561Z,44.16
2022-08-26T10:36:36.394Z,47.71
2022-08-26T10:37:31.621Z,53.34
2022-08-26T10:38:31.589Z,61.17
2022-08-26T10:39:31.585Z,98.36
2022-08-26T10:40:31.715Z,51.5
2022-08-26T10:41:31.636Z,109.73
2022-08-26T10:42:31.748Z,77.19
2022-08-26T10:43:31.588Z,64.96
2022-08-26T10:44:31.602Z,76.34
2022-08-26T10:45:31.782Z,49.79
2022-08-26T10:46:32.006Z,42.94
2022-08-26T10:47:36.011Z,41.96
2022-08-26T10:48:39.997Z,48.93
2022-08-26T10:49:44.024Z,42.45
2022-08-26T10:50:47.986Z,41.96
2022-08-26T10:51:52.068Z,42.94
2022-08-26T10:52:55.986Z,42.45
2022-08-26T10:54:00.026Z,46.73
2022-08-26T10:55:04.146Z,43.8
2022-08-26T10:56:18.717Z,42.94
2022-08-26T10:57:12.095Z,48.93
2022-08-26T10:58:16.419Z,41.96
2022-08-26T10:59:20.076Z,42.45
2022-08-26T11:00:24.011Z,42.94
2022-08-26T11:01:28.009Z,57.25
2022-08-26T11:02:31.621Z,62.39
2022-08-26T11:03:31.646Z,85.02
2022-08-26T11:04:34.863Z,123.56
2022-08-26T11:05:31.585Z,173.84
2022-08-26T11:06:31.619Z,254.21
2022-08-26T11:07:31.993Z,79.76
2022-08-26T11:08:31.622Z,44.16
2022-08-26T11:09:31.573Z,44.65
2022-08-26T11:10:31.715Z,49.79
2022-08-26T11:11:31.595Z,50.28
2022-08-26T11:12:31.600Z,50.65
2022-08-26T11:13:31.565Z,51.99
2022-08-26T11:14:39.506Z,60.68
2022-08-26T11:15:33.180Z,80.62
2022-08-26T11:16:31.672Z,71.56
2022-08-26T11:17:31.689Z,83.19
2022-08-26T11:18:35.107Z,65.45
2022-08-26T11:19:45.596Z,97.13
2022-08-26T11:20:31.892Z,98.36
2022-08-26T11:21:31.568Z,202.59
2022-08-26T11:22:31.606Z,399.06
2022-08-26T11:23:31.968Z,231.58
2022-08-26T11:24:31.738Z,379.49
2022-08-26T11:25:32.961Z,177.39
2022-08-26T11:26:35.895Z,122.34
2022-08-26T11:27:32.687Z,271.95
2022-08-26T11:28:32.841Z,141.78
2022-08-26T11:29:31.734Z,67.16
2022-08-26T11:30:31.633Z,68.87
2022-08-26T11:31:32.422Z,422.42
2022-08-26T11:32:31.593Z,129.19
2022-08-26T11:33:31.783Z,165.64
2022-08-26T11:34:31.641Z,62.88
2022-08-26T11:35:34.694Z,193.9
2022-08-26T11:36:31.592Z,278.44
2022-08-26T11:37:31.731Z,361.74
2022-08-26T11:38:34.102Z,292.38
2022-08-26T11:39:31.597Z,517.48
2022-08-26T11:40:31.958Z,193.41
2022-08-26T11:41:31.600Z,208.58
2022-08-26T11:42:31.589Z,205.15
2022-08-26T11:43:31.621Z,271.1
2022-08-26T11:44:31.616Z,133.95
2022-08-26T11:45:31.643Z,44.16
2022-08-26T11:46:31.604Z,72.79
2022-08-26T11:47:31.582Z,43.31
2022-08-26T11:48:31.673Z,247.61
2022-08-26T11:49:31.603Z,347.8
2022-08-26T11:50:31.576Z,197.32
2022-08-26T11:51:31.863Z,350
2022-08-26T11:52:31.595Z,170.05
2022-08-26T11:53:31.624Z,273.66
2022-08-26T11:54:35.474Z,212.49
2022-08-26T11:55:33.160Z,147.9
2022-08-26T11:56:31.904Z,115.73
2022-08-26T11:57:31.597Z,219.83
2022-08-26T11:58:31.614Z,318.32
2022-08-26T12:00:33.759Z,150.47
2022-08-26T12:01:31.614Z,236.84
2022-08-26T12:02:31.571Z,356.98
2022-08-26T12:03:31.692Z,405.18
2022-08-26T12:04:31.693Z,286.27
2022-08-26T12:05:31.586Z,285.41
2022-08-26T12:06:31.662Z,376.55
2022-08-26T12:07:31.594Z,287.98
2022-08-26T12:08:31.572Z,91.51
2022-08-26T12:09:31.593Z,340.95
2022-08-26T12:10:31.568Z,331.78
2022-08-26T12:11:31.602Z,72.79
2022-08-26T12:12:34.679Z,179.1
2022-08-26T12:13:31.604Z,186.07
2022-08-26T12:14:31.584Z,248.95
2022-08-26T12:15:31.575Z,101.9
2022-08-26T12:16:31.799Z,203.44
2022-08-26T12:17:31.582Z,71.56
2022-08-26T12:18:31.645Z,103.61
2022-08-26T12:19:32.680Z,137.87
2022-08-26T12:20:31.590Z,154.75
2022-08-26T12:21:34.848Z,115.73
2022-08-26T12:22:31.611Z,116.58
2022-08-26T12:23:31.582Z,107.53
2022-08-26T12:24:31.568Z,51.14
2022-08-26T12:25:36.150Z,54.56
2022-08-26T12:26:31.582Z,62.39
2022-08-26T12:27:31.591Z,181.67
2022-08-26T12:28:31.574Z,164.78
2022-08-26T12:29:31.571Z,235
2022-08-26T12:30:31.608Z,186.07
2022-08-26T12:31:31.673Z,77.19
2022-08-26T12:32:31.611Z,376.55
2022-08-26T12:33:31.629Z,308.78
2022-08-26T12:34:31.643Z,271.46
2022-08-26T12:35:32.994Z,325.78
2022-08-26T12:36:31.604Z,291.4
2022-08-26T12:37:31.596Z,286.63
2022-08-26T12:38:31.616Z,224.61
2022-08-26T12:39:31.602Z,258
2022-08-26T12:40:31.775Z,217.76
2022-08-26T12:41:31.622Z,85.39
2022-08-26T12:42:31.613Z,80.25
2022-08-26T12:43:31.612Z,82.82
2022-08-26T12:44:31.596Z,319.17
2022-08-26T12:45:32.942Z,232.07
2022-08-26T12:46:31.611Z,363.95
2022-08-26T12:47:42.144Z,515.77
2022-08-26T12:48:31.557Z,220.69
2022-08-26T12:49:31.599Z,358.32
2022-08-26T12:50:31.591Z,431.6
2022-08-26T12:51:31.608Z,143.99
2022-08-26T12:52:31.561Z,512.71
2022-08-26T12:53:31.578Z,432.94
2022-08-26T12:54:31.590Z,430.25
2022-08-26T12:55:31.727Z,383.03
2022-08-26T12:56:31.588Z,421.57
2022-08-26T12:57:31.560Z,408.97
2022-08-26T12:58:31.624Z,323.95
2022-08-26T12:59:31.589Z,428.54
2022-08-26T13:00:31.587Z,186.93
2022-08-26T13:01:31.648Z,437.23
2022-08-26T13:02:31.585Z,454.6
2022-08-26T13:03:31.559Z,394.29
2022-08-26T13:04:31.593Z,434.66
2022-08-26T13:05:31.558Z,421.57
2022-08-26T13:06:31.685Z,446.77
2022-08-26T13:07:31.613Z,429.89
2022-08-26T13:08:31.587Z,402.98
2022-08-26T13:09:31.572Z,448.48
2022-08-26T13:10:31.571Z,446.77
2022-08-26T13:11:31.616Z,435.88
2022-08-26T13:12:31.589Z,411.66
2022-08-26T13:13:31.543Z,403.34
2022-08-26T13:14:31.576Z,367.37
2022-08-26T13:15:31.563Z,410.81
2022-08-26T13:16:31.852Z,408.6
2022-08-26T13:17:31.563Z,157.44
2022-08-26T13:18:31.588Z,87.1
2022-08-26T13:19:31.605Z,122.7